Date,TemperatureHighF,TemperatureAvgF,TemperatureLowF,DewpointHighF,DewpointAvgF,DewpointLowF,HumidityHigh,HumidityAvg,HumidityLow,PressureMaxIn,PressureMinIn,WindSpeedMaxMPH,WindSpeedAvgMPH,GustSpeedMaxMPH,PrecipitationSumIn
2014-1-1,25,18,11,19,14,9,94,83,67,0.00,40.00,0,-999,0,0.00
2014-1-2,25,17,11,20,14,9,95,89,74,0.00,40.00,0,-999,0,0.00
2014-1-3,29,22,13,24,18,5,95,86,62,0.00,40.00,0,-999,0,0.00
2014-1-4,15,9,6,9,5,1,90,81,68,0.00,40.00,0,-999,0,0.00
2014-1-5,7,3,-1,2,-3,-8,89,77,65,0.00,40.00,0,-999,0,0.00
2014-1-6,17,7,0,5,-2,-8,76,67,54,0.00,40.00,0,-999,0,0.00
2014-1-7,23,17,13,14,10,3,89,73,60,0.00,40.00,0,-999,0,0.00
2014-1-8,24,19,14,20,17,11,96,91,85,0.00,40.00,0,-999,0,0.00
2014-1-9,22,18,13,21,16,9,96,94,85,0.00,40.00,0,-999,0,0.00
2014-1-10,24,18,12,19,15,8,93,88,77,0.00,40.00,0,-999,0,0.00
2014-1-11,32,26,21,28,25,18,98,93,81,0.00,40.00,0,-999,0,0.00
2014-1-12,21,17,15,19,14,12,94,90,84,0.00,40.00,0,-999,0,0.00
2014-1-13,25,22,16,22,20,14,94,90,83,0.00,40.00,0,-999,0,0.00
2014-1-14,29,23,19,19,17,15,91,79,65,0.00,40.00,0,-999,0,0.00
2014-1-15,29,21,15,18,15,11,93,76,58,0.00,40.00,0,-999,0,0.00
2014-1-16,25,19,15,13,11,9,80,70,59,0.00,40.00,0,-999,0,0.00
2014-1-17,29,20,15,13,10,7,77,65,48,0.00,40.00,0,-999,0,0.00
2014-1-18,29,21,16,15,12,9,79,67,51,0.00,40.00,0,-999,0,0.00
2014-1-19,31,23,18,11,8,2,68,51,33,0.00,40.00,0,-999,0,0.00
2014-1-20,31,23,19,15,8,-11,64,53,19,0.00,40.00,0,-999,0,0.00
2014-1-21,33,24,18,11,7,-1,64,50,38,0.00,40.00,0,-999,0,0.00
2014-1-22,24,19,15,19,11,7,94,71,53,0.00,40.00,0,-999,0,0.00
2014-1-23,24,17,12,16,8,1,88,67,51,0.00,40.00,0,-999,0,0.00
2014-1-24,25,20,12,11,6,1,73,55,45,0.00,40.00,0,-999,0,0.00
2014-1-25,27,21,16,12,8,3,66,57,46,0.00,40.00,0,-999,0,0.00
2014-1-26,25,19,14,14,10,5,77,66,50,0.00,40.00,0,-999,0,0.00
2014-1-27,20,14,4,15,6,-12,95,73,44,0.00,40.00,0,-999,0,0.00
2014-1-28,18,8,0,11,-6,-14,92,52,34,0.00,40.00,0,-999,0,0.00
2014-1-29,25,19,13,24,16,8,97,91,73,0.00,40.00,0,-999,0,0.00
2014-1-30,25,20,16,20,17,14,95,87,74,0.00,40.00,0,-999,0,0.00
2014-1-31,21,14,9,15,9,4,90,80,61,0.00,40.00,0,-999,0,0.00
2014-2-1,15,10,5,9,5,0,93,83,69,0.00,40.00,0,-999,0,0.00
2014-2-2,15,10,8,11,7,5,91,87,79,0.00,40.00,0,-999,0,0.00
2014-2-3,16,10,8,11,8,4,92,89,79,0.00,40.00,0,-999,0,0.00
2014-2-4,9,3,-4,6,-2,-8,86,80,72,0.00,40.00,0,-999,0,0.00
2014-2-5,3,-3,-7,-4,-8,-12,86,80,69,0.00,40.00,0,-999,0,0.00
2014-2-6,8,0,-8,5,-4,-12,90,82,68,0.00,40.00,0,-999,0,0.00
2014-2-7,20,13,8,15,10,5,93,89,79,0.00,40.00,0,-999,0,0.00
2014-2-8,25,21,13,23,20,11,97,93,88,0.00,40.00,0,-999,0,0.00
2014-2-9,28,25,22,25,21,17,97,88,75,0.00,40.00,0,-999,0,0.00
2014-2-10,30,22,16,21,16,11,91,78,55,0.00,40.00,0,-999,0,0.00
2014-2-11,25,21,17,21,18,14,95,88,81,0.00,40.00,0,-999,0,0.00
2014-2-12,27,23,20,26,22,17,97,94,83,0.00,40.00,0,-999,0,0.00
2014-2-13,30,28,23,28,25,17,98,89,78,0.00,40.00,0,-999,0,0.00
2014-2-14,29,23,17,29,19,5,99,87,52,0.00,40.00,0,-999,0,0.00
2014-2-15,33,30,27,30,28,25,99,91,76,0.00,40.00,0,-999,0,0.00
2014-2-16,33,25,15,29,22,8,98,87,74,0.00,40.00,0,-999,0,0.00
2014-2-17,34,22,12,18,13,7,83,68,49,0.00,40.00,0,-999,0,0.00
2014-2-18,27,23,18,20,17,12,95,78,60,0.00,40.00,0,-999,0,0.00
2014-2-19,26,18,9,22,12,2,96,78,41,0.00,40.00,0,-999,0,0.00
2014-2-20,18,11,3,16,6,-2,94,79,63,0.00,40.00,0,-999,0,0.00
2014-2-21,22,18,15,18,15,11,94,89,81,0.00,40.00,0,-999,0,0.00
2014-2-22,25,17,14,18,14,9,94,87,73,0.00,40.00,0,-999,0,0.00
2014-2-23,30,23,16,22,19,14,95,85,68,0.00,40.00,0,-999,0,0.00
2014-2-24,35,29,24,24,22,18,91,75,60,0.00,40.00,0,-999,0,0.00
2014-2-25,34,26,12,28,19,2,90,75,47,0.00,40.00,0,-999,0,0.00
2014-2-26,35,20,7,21,11,2,85,69,48,0.00,40.00,0,-999,0,0.00
2014-2-27,36,29,24,28,24,20,97,82,62,0.00,40.00,0,-999,0,0.00
2014-2-28,31,27,25,28,25,22,98,93,81,0.00,40.00,0,-999,0,0.00
2014-3-1,28,26,24,27,25,22,98,95,87,0.00,40.00,0,-999,0,0.00
2014-3-2,30,25,22,28,24,20,98,94,88,0.00,40.00,0,-999,0,0.00
2014-3-3,35,28,26,28,26,24,98,91,71,0.00,40.00,0,-999,0,0.00
2014-3-4,41,29,23,30,26,22,97,87,58,0.00,40.00,0,-999,0,0.00
2014-3-5,36,28,23,29,24,21,96,87,70,0.00,40.00,0,-999,0,0.00
2014-3-6,31,28,26,30,27,24,98,94,83,0.00,40.00,0,-999,0,0.00
2014-3-7,38,27,20,27,22,15,96,82,56,0.00,40.00,0,-999,0,0.00
2014-3-8,40,25,17,24,20,15,96,81,50,0.00,40.00,0,-999,0,0.00
2014-3-9,43,31,24,27,22,15,80,67,48,0.00,40.00,0,-999,0,0.00
2014-3-10,39,30,23,30,27,21,98,87,58,0.00,40.00,0,-999,0,0.00
2014-3-11,36,23,17,22,16,11,96,78,48,0.00,40.00,0,-999,0,0.00
2014-3-12,26,14,11,14,9,8,88,80,60,0.00,40.00,0,-999,0,0.00
2014-3-13,40,30,23,20,17,14,73,60,40,0.00,40.00,0,-999,0,0.00
2014-3-14,25,22,19,16,15,14,80,75,69,0.00,40.00,0,-999,0,0.00
2014-3-15,38,27,20,19,13,10,74,56,42,0.00,40.00,0,-999,0,0.00
2014-3-16,43,35,22,22,18,12,64,49,35,0.00,40.00,0,-999,0,0.00
2014-3-17,36,28,18,22,18,14,95,70,42,0.00,40.00,0,-999,0,0.00
2014-3-18,27,18,14,26,17,12,95,94,93,0.00,40.00,0,-999,0,0.00
2014-3-19,31,25,15,22,15,10,92,66,53,0.00,40.00,0,-999,0,0.00
2014-3-20,41,28,20,18,10,-100,63,51,33,0.00,40.00,0,-999,0,0.00
2014-3-21,29,18,8,7,2,-6,60,49,33,0.00,40.00,0,-999,0,0.00
2014-3-22,35,20,11,12,6,1,72,55,30,0.00,40.00,0,-999,0,0.00
2014-3-23,37,25,15,18,7,-5,67,46,32,0.00,40.00,0,-999,0,0.00
2014-3-24,40,22,14,14,9,5,70,56,34,0.00,40.00,0,-999,0,0.00
2014-3-25,47,39,33,18,14,12,46,36,27,0.00,40.00,0,-999,0,0.00
2014-3-26,37,31,25,27,20,9,95,66,31,0.00,40.00,0,-999,0,0.00
2014-3-27,29,23,20,24,20,16,96,86,63,0.00,40.00,0,-999,0,0.00
2014-3-28,37,25,18,23,18,14,93,77,45,0.00,40.00,0,-999,0,0.00
2014-3-29,32,29,26,29,25,19,98,85,66,0.00,40.00,0,-999,0,0.00
2014-3-30,32,28,22,30,26,20,98,93,78,0.00,40.00,0,-999,0,0.00
2014-3-31,33,23,18,24,19,12,96,83,54,0.00,40.00,0,-999,0,0.00
2014-4-1,39,25,15,25,17,11,96,73,44,0.00,40.00,0,-999,0,0.00
2014-4-2,35,22,16,21,16,12,95,76,47,0.00,40.00,0,-999,0,0.00
2014-4-3,35,22,14,19,14,11,90,71,40,0.00,40.00,0,-999,0,0.00
2014-4-4,33,23,15,27,18,10,96,83,71,0.00,40.00,0,-999,0,0.00
2014-4-5,41,27,22,25,22,18,97,81,45,0.00,40.00,0,-999,0,0.00
2014-4-6,37,27,19,27,23,16,97,87,59,0.00,40.00,0,-999,0,0.00
2014-4-7,44,30,20,27,21,15,82,68,47,0.00,40.00,0,-999,0,0.00
2014-4-8,57,39,30,29,26,23,77,61,30,0.00,40.00,0,-999,0,0.00
2014-4-9,54,42,35,28,25,18,72,51,32,0.00,40.00,0,-999,0,0.00
2014-4-10,48,37,31,26,21,15,67,53,31,0.00,40.00,0,-999,0,0.00
2014-4-11,52,38,30,25,20,15,61,48,30,0.00,40.00,0,-999,0,0.00
2014-4-12,52,38,29,26,21,15,64,50,28,0.00,40.00,0,-999,0,0.00
2014-5-13,41,36,32,15,14,12,50,40,31,0.00,40.00,0,-999,0,0.00
2014-5-14,53,38,30,23,17,10,55,43,27,0.00,40.00,0,-999,0,0.00
2014-5-15,57,46,36,29,25,21,64,46,27,0.00,40.00,0,-999,0,0.00
2014-5-16,51,43,37,35,29,23,92,60,39,0.00,40.00,0,-999,0,0.00
2014-5-17,59,44,35,42,33,20,96,71,32,0.00,40.00,0,-999,0,0.00
2014-5-18,55,46,36,34,28,21,88,49,33,0.00,40.00,0,-999,0,0.00
2014-6-14,44,38,32,33,27,17,90,67,40,0.00,40.00,0,-999,0,0.00
2014-6-15,54,42,33,38,29,22,79,62,32,0.00,40.00,0,-999,0,0.00
2014-6-16,45,41,38,41,35,29,94,79,61,0.00,40.00,0,-999,0,0.00
2014-6-17,39,34,31,36,31,27,98,86,70,0.00,40.00,0,-999,0,0.00
2014-6-18,36,31,28,32,29,24,97,92,79,0.00,40.00,0,-999,0,0.00
2014-6-19,55,42,29,37,32,27,96,71,43,0.00,40.00,0,-999,0,0.00
2014-6-20,66,54,43,39,32,23,64,45,26,0.00,40.00,0,-999,0,0.00
2014-6-21,58,53,50,29,27,25,45,37,28,0.00,40.00,0,-999,0,0.00
2014-11-17,11,4,0,9,-40,-72,91,36,91,0.00,40.00,0,0,0,0.00
2014-11-18,19,13,4,15,10,2,91,89,84,0.00,40.00,0,0,0,0.00
2014-11-19,26,21,20,21,17,15,85,83,80,0.00,40.00,0,0,0,0.00
2014-11-20,29,24,20,22,18,15,88,77,63,0.00,40.00,0,0,0,0.00
2014-11-21,29,27,25,23,21,19,89,79,71,0.00,40.00,0,0,0,0.00
2014-11-22,26,26,26,26,26,24,98,97,93,0.00,40.00,0,0,0,0.00
2014-11-23,18,18,18,17,17,17,95,95,95,0.00,40.00,0,0,0,0.00